LFMN

Nice-Côte d'Azur Airport

Nice, France
TAF LFMN 142000Z 1421/1603 34008KT 9999 BKN060 BECMG 1514/1516 24010KT BECMG 1518/1520 34008KT
Issued Valid From Valid To
Dec-14 @ 20:00 UTC
(2 hours ago)
Dec-14 @ 21:00 UTC
(58 minutes ago)
Dec-16 @ 03:00 UTC
(-1 days ago)
Dec-14 @ 21:00 to Dec-15 @ 14:00
TAF LFMN 142000Z 1421/1603 34008KT 9999 BKN060
Wind Visibility Clouds
340° at 8 knots 10,000+ meters
  • Broken at 6,000' AGL
Becoming Dec-15 @ 14:00 to Dec-15 @ 18:00
BECMG 1514/1516 24010KT
Wind Visibility Clouds
240° at 10 knots 10,000+ meters
  • Broken at 6,000' AGL
Becoming Dec-15 @ 18:00 to Dec-16 @ 03:00
BECMG 1518/1520 34008KT
Wind Visibility Clouds
340° at 8 knots 10,000+ meters
  • Broken at 6,000' AGL
TAF LFMN 142000Z 1421/1603 34008KT 9999 BKN060 BECMG 1514/1516 24010KT BECMG 1518/1520 34008KT
Issued Dec-14 @ 20:00 UTC
(2 hours ago)
Valid From Dec-14 @ 21:00 UTC
(58 minutes ago)
Valid To Dec-16 @ 03:00 UTC
(-1 days ago)
Dec-14 @ 21:00 - Dec-15 @ 14:00
Wind Visibility
340° at 8 knots 10,000+ meters
Clouds
  • Broken at 6,000' AGL
Becoming Dec-15 @ 14:00 - Dec-15 @ 18:00
Wind Visibility
240° at 10 knots 10,000+ meters
Clouds
  • Broken at 6,000' AGL
Becoming Dec-15 @ 18:00 - Dec-16 @ 03:00
Wind Visibility
340° at 8 knots 10,000+ meters
Clouds
  • Broken at 6,000' AGL